Pagrindinis puslapis
METAR-TAF:

METAR-TAF

Oro uostai :

Padangas, Indonezija

platuma: 00-47-12S, ilguma: 100-16-50E, Aukštis: 5 m

METAR: trūkstamas

Laikas: 03:44 (20:44 UTC)

Prognozė

Ataskaita buvo paskelbta 3 valandos ir 44 minutes, ne 17:00 UTC
Prognozė galioja nuo 20 metu 18 UTC su 21 metu 18 UTC
Vėjas 8 kt iš Pietų
Matomumas: 6000 m
Išsisklaidę debesys ne aukštis 2000 ft
Laikinai
nuo 21 metu 00 UTC su 21 metu 02 UTC
Matomumas: 3000 m
migla

TAF: WIEE 201700Z 2018/2118 17008KT 6000 SCT020 TEMPO 2100/2102 3000 HZ

Orai ataskaitas ir orų prognozės (METAR, TAF).

turimą stotys yra geltonos ir raudonos taškus žemėlapyje.

Perkelti pele per norėdami pamatyti stoties vardą.

Tada spustelėkite, norėdami matyti oro stebėjimo ir prognozės.

Norėdami pakeisti žemėlapį: spustelėkite ant žalios mygtukų su juodo kryžiaus žemyn,; žalią mygtuką su brūkšneliu, jei norite nutolinti; arba žalių rodyklių gretimoms žemėlapius.


METAR-TAF: